sensor_id;sensor_type;location;lat;lon;timestamp;temperature;humidity
42965;DHT22;28604;51.204;22.552;2022-11-20T00:01:18;-4.60;88.80
42965;DHT22;28604;51.204;22.552;2022-11-20T00:03:44;-4.60;89.20
42965;DHT22;28604;51.204;22.552;2022-11-20T00:06:18;-4.60;88.60
42965;DHT22;28604;51.204;22.552;2022-11-20T00:08:45;-4.60;89.10
42965;DHT22;28604;51.204;22.552;2022-11-20T00:11:17;-4.50;89.00
42965;DHT22;28604;51.204;22.552;2022-11-20T00:13:44;-4.50;89.20
42965;DHT22;28604;51.204;22.552;2022-11-20T00:16:13;-4.50;89.10
42965;DHT22;28604;51.204;22.552;2022-11-20T00:18:39;-4.40;88.90
42965;DHT22;28604;51.204;22.552;2022-11-20T00:21:19;-4.40;88.50
42965;DHT22;28604;51.204;22.552;2022-11-20T00:23:46;-4.40;88.50
42965;DHT22;28604;51.204;22.552;2022-11-20T00:26:15;-4.30;88.50
42965;DHT22;28604;51.204;22.552;2022-11-20T00:28:42;-4.40;88.70
42965;DHT22;28604;51.204;22.552;2022-11-20T00:31:14;-4.30;88.70
42965;DHT22;28604;51.204;22.552;2022-11-20T00:33:42;-4.40;88.40
42965;DHT22;28604;51.204;22.552;2022-11-20T00:36:11;-4.30;88.30
42965;DHT22;28604;51.204;22.552;2022-11-20T00:38:37;-4.30;88.10
42965;DHT22;28604;51.204;22.552;2022-11-20T00:41:06;-4.30;88.20
42965;DHT22;28604;51.204;22.552;2022-11-20T00:43:32;-4.30;88.20
42965;DHT22;28604;51.204;22.552;2022-11-20T00:46:08;-4.20;88.10
42965;DHT22;28604;51.204;22.552;2022-11-20T00:48:34;-4.30;88.10
42965;DHT22;28604;51.204;22.552;2022-11-20T00:51:01;-4.20;88.00
42965;DHT22;28604;51.204;22.552;2022-11-20T00:53:27;-4.20;88.00
42965;DHT22;28604;51.204;22.552;2022-11-20T00:58:25;-4.10;87.80
42965;DHT22;28604;51.204;22.552;2022-11-20T01:01:09;-4.10;87.70
42965;DHT22;28604;51.204;22.552;2022-11-20T01:03:38;-4.10;87.90
42965;DHT22;28604;51.204;22.552;2022-11-20T01:06:10;-4.10;88.10
42965;DHT22;28604;51.204;22.552;2022-11-20T01:08:37;-4.00;88.20
42965;DHT22;28604;51.204;22.552;2022-11-20T01:11:12;-4.00;88.10
42965;DHT22;28604;51.204;22.552;2022-11-20T01:13:38;-3.90;88.10
42965;DHT22;28604;51.204;22.552;2022-11-20T01:16:06;-3.90;88.00
42965;DHT22;28604;51.204;22.552;2022-11-20T01:18:33;-3.80;87.80
42965;DHT22;28604;51.204;22.552;2022-11-20T01:21:08;-3.70;87.60
42965;DHT22;28604;51.204;22.552;2022-11-20T01:23:36;-3.60;87.50
42965;DHT22;28604;51.204;22.552;2022-11-20T01:26:04;-3.60;87.30
42965;DHT22;28604;51.204;22.552;2022-11-20T01:28:31;-3.60;87.40
42965;DHT22;28604;51.204;22.552;2022-11-20T01:30:57;-3.60;87.80
42965;DHT22;28604;51.204;22.552;2022-11-20T01:33:24;-3.60;87.40
42965;DHT22;28604;51.204;22.552;2022-11-20T01:35:50;-3.60;88.10
42965;DHT22;28604;51.204;22.552;2022-11-20T01:38:16;-3.60;88.10
42965;DHT22;28604;51.204;22.552;2022-11-20T01:40:43;-3.50;88.10
42965;DHT22;28604;51.204;22.552;2022-11-20T01:43:19;-3.50;88.00
42965;DHT22;28604;51.204;22.552;2022-11-20T01:48:47;-3.40;88.40
42965;DHT22;28604;51.204;22.552;2022-11-20T01:51:42;-3.40;88.70
42965;DHT22;28604;51.204;22.552;2022-11-20T01:54:17;-3.40;89.00
42965;DHT22;28604;51.204;22.552;2022-11-20T01:56:46;-3.40;88.80
42965;DHT22;28604;51.204;22.552;2022-11-20T01:59:16;-3.40;89.00
42965;DHT22;28604;51.204;22.552;2022-11-20T02:01:43;-3.30;89.00
42965;DHT22;28604;51.204;22.552;2022-11-20T02:04:10;-3.40;89.10
42965;DHT22;28604;51.204;22.552;2022-11-20T02:06:42;-3.40;89.30
42965;DHT22;28604;51.204;22.552;2022-11-20T02:09:09;-3.30;89.60
42965;DHT22;28604;51.204;22.552;2022-11-20T02:11:35;-3.30;89.90
42965;DHT22;28604;51.204;22.552;2022-11-20T02:14:01;-3.30;90.10
42965;DHT22;28604;51.204;22.552;2022-11-20T02:16:30;-3.30;90.00
42965;DHT22;28604;51.204;22.552;2022-11-20T02:18:59;-3.30;90.10
42965;DHT22;28604;51.204;22.552;2022-11-20T02:24:19;-3.10;89.80
42965;DHT22;28604;51.204;22.552;2022-11-20T02:26:53;-3.00;90.10
42965;DHT22;28604;51.204;22.552;2022-11-20T02:29:26;-3.00;89.80
42965;DHT22;28604;51.204;22.552;2022-11-20T02:31:55;-2.90;89.50
42965;DHT22;28604;51.204;22.552;2022-11-20T02:34:21;-2.80;89.50
42965;DHT22;28604;51.204;22.552;2022-11-20T02:36:48;-2.80;89.50
42965;DHT22;28604;51.204;22.552;2022-11-20T02:39:15;-2.80;89.40
42965;DHT22;28604;51.204;22.552;2022-11-20T02:41:42;-2.70;89.30
42965;DHT22;28604;51.204;22.552;2022-11-20T02:44:08;-2.70;88.90
42965;DHT22;28604;51.204;22.552;2022-11-20T02:46:34;-2.60;89.00
42965;DHT22;28604;51.204;22.552;2022-11-20T02:49:02;-2.60;88.80
42965;DHT22;28604;51.204;22.552;2022-11-20T02:51:29;-2.50;89.30
42965;DHT22;28604;51.204;22.552;2022-11-20T02:53:55;-2.50;88.50
42965;DHT22;28604;51.204;22.552;2022-11-20T02:56:21;-2.50;89.00
42965;DHT22;28604;51.204;22.552;2022-11-20T02:58:47;-2.50;88.10
42965;DHT22;28604;51.204;22.552;2022-11-20T03:01:13;-2.50;88.10
42965;DHT22;28604;51.204;22.552;2022-11-20T03:03:39;-2.50;88.40
42965;DHT22;28604;51.204;22.552;2022-11-20T03:06:06;-2.50;88.30
42965;DHT22;28604;51.204;22.552;2022-11-20T03:08:32;-2.50;88.20
42965;DHT22;28604;51.204;22.552;2022-11-20T03:11:06;-2.40;88.50
42965;DHT22;28604;51.204;22.552;2022-11-20T03:13:32;-2.30;88.80
42965;DHT22;28604;51.204;22.552;2022-11-20T03:16:03;-2.30;88.90
42965;DHT22;28604;51.204;22.552;2022-11-20T03:18:29;-2.20;88.70
42965;DHT22;28604;51.204;22.552;2022-11-20T03:20:58;-2.20;88.30
42965;DHT22;28604;51.204;22.552;2022-11-20T03:23:25;-2.20;88.10
42965;DHT22;28604;51.204;22.552;2022-11-20T03:25:51;-2.20;88.40
42965;DHT22;28604;51.204;22.552;2022-11-20T03:28:17;-2.20;88.20
42965;DHT22;28604;51.204;22.552;2022-11-20T03:30:43;-2.10;88.80
42965;DHT22;28604;51.204;22.552;2022-11-20T03:33:09;-2.10;88.50
42965;DHT22;28604;51.204;22.552;2022-11-20T03:35:35;-2.10;88.40
42965;DHT22;28604;51.204;22.552;2022-11-20T03:38:01;-2.10;88.40
42965;DHT22;28604;51.204;22.552;2022-11-20T03:40:27;-2.10;88.40
42965;DHT22;28604;51.204;22.552;2022-11-20T03:42:53;-2.00;88.60
42965;DHT22;28604;51.204;22.552;2022-11-20T03:45:19;-2.10;88.00
42965;DHT22;28604;51.204;22.552;2022-11-20T03:47:45;-2.00;88.30
42965;DHT22;28604;51.204;22.552;2022-11-20T03:50:13;-2.10;88.20
42965;DHT22;28604;51.204;22.552;2022-11-20T03:52:39;-2.00;88.30
42965;DHT22;28604;51.204;22.552;2022-11-20T03:55:06;-2.10;88.30
42965;DHT22;28604;51.204;22.552;2022-11-20T03:57:32;-2.10;88.50
42965;DHT22;28604;51.204;22.552;2022-11-20T03:59:58;-2.10;88.50
42965;DHT22;28604;51.204;22.552;2022-11-20T04:02:24;-2.10;88.60
42965;DHT22;28604;51.204;22.552;2022-11-20T04:04:50;-2.20;88.50
42965;DHT22;28604;51.204;22.552;2022-11-20T04:07:16;-2.20;88.60
42965;DHT22;28604;51.204;22.552;2022-11-20T04:09:42;-2.20;88.50
42965;DHT22;28604;51.204;22.552;2022-11-20T04:12:08;-2.30;88.50
42965;DHT22;28604;51.204;22.552;2022-11-20T04:14:34;-2.10;88.50
42965;DHT22;28604;51.204;22.552;2022-11-20T04:17:00;-2.10;88.10
42965;DHT22;28604;51.204;22.552;2022-11-20T04:19:26;-2.10;88.00
42965;DHT22;28604;51.204;22.552;2022-11-20T04:21:52;-2.20;88.20
42965;DHT22;28604;51.204;22.552;2022-11-20T04:24:18;-2.30;88.30
42965;DHT22;28604;51.204;22.552;2022-11-20T04:26:44;-2.30;88.50
42965;DHT22;28604;51.204;22.552;2022-11-20T04:29:11;-2.20;88.50
42965;DHT22;28604;51.204;22.552;2022-11-20T04:31:37;-2.20;88.30
42965;DHT22;28604;51.204;22.552;2022-11-20T04:34:05;-2.20;88.40
42965;DHT22;28604;51.204;22.552;2022-11-20T04:36:32;-2.20;88.30
42965;DHT22;28604;51.204;22.552;2022-11-20T04:39:03;-2.20;88.30
42965;DHT22;28604;51.204;22.552;2022-11-20T04:41:32;-2.30;88.30
42965;DHT22;28604;51.204;22.552;2022-11-20T04:44:00;-2.30;88.40
42965;DHT22;28604;51.204;22.552;2022-11-20T04:46:40;-2.30;88.50
42965;DHT22;28604;51.204;22.552;2022-11-20T04:49:08;-2.40;88.60
42965;DHT22;28604;51.204;22.552;2022-11-20T04:51:34;-2.40;88.60
42965;DHT22;28604;51.204;22.552;2022-11-20T04:54:01;-2.40;88.80
42965;DHT22;28604;51.204;22.552;2022-11-20T04:56:26;-2.40;88.80
42965;DHT22;28604;51.204;22.552;2022-11-20T04:58:53;-2.50;89.00
42965;DHT22;28604;51.204;22.552;2022-11-20T05:01:21;-2.50;89.10
42965;DHT22;28604;51.204;22.552;2022-11-20T05:03:48;-2.60;89.30
42965;DHT22;28604;51.204;22.552;2022-11-20T05:06:16;-2.60;89.20
42965;DHT22;28604;51.204;22.552;2022-11-20T05:08:42;-2.60;89.40
42965;DHT22;28604;51.204;22.552;2022-11-20T05:11:10;-2.60;89.40
42965;DHT22;28604;51.204;22.552;2022-11-20T05:13:37;-2.60;89.40
42965;DHT22;28604;51.204;22.552;2022-11-20T05:16:09;-2.60;89.40
42965;DHT22;28604;51.204;22.552;2022-11-20T05:18:36;-2.60;89.40
42965;DHT22;28604;51.204;22.552;2022-11-20T05:21:02;-2.60;89.60
42965;DHT22;28604;51.204;22.552;2022-11-20T05:23:29;-2.70;89.60
42965;DHT22;28604;51.204;22.552;2022-11-20T05:25:56;-2.70;89.70
42965;DHT22;28604;51.204;22.552;2022-11-20T05:28:24;-2.70;89.80
42965;DHT22;28604;51.204;22.552;2022-11-20T05:30:50;-2.70;89.70
42965;DHT22;28604;51.204;22.552;2022-11-20T05:33:17;-2.70;89.60
42965;DHT22;28604;51.204;22.552;2022-11-20T05:35:43;-2.70;89.40
42965;DHT22;28604;51.204;22.552;2022-11-20T05:38:10;-2.80;89.50
42965;DHT22;28604;51.204;22.552;2022-11-20T05:40:36;-2.80;89.30
42965;DHT22;28604;51.204;22.552;2022-11-20T05:43:02;-2.70;89.30
42965;DHT22;28604;51.204;22.552;2022-11-20T05:45:28;-2.60;88.90
42965;DHT22;28604;51.204;22.552;2022-11-20T05:47:58;-2.70;88.60
42965;DHT22;28604;51.204;22.552;2022-11-20T05:50:24;-2.70;88.00
42965;DHT22;28604;51.204;22.552;2022-11-20T05:52:51;-2.60;88.00
42965;DHT22;28604;51.204;22.552;2022-11-20T05:55:16;-2.60;87.80
42965;DHT22;28604;51.204;22.552;2022-11-20T05:57:42;-2.70;87.90
42965;DHT22;28604;51.204;22.552;2022-11-20T06:00:09;-2.80;88.50
42965;DHT22;28604;51.204;22.552;2022-11-20T06:02:35;-2.80;89.00
42965;DHT22;28604;51.204;22.552;2022-11-20T06:05:02;-2.90;90.00
42965;DHT22;28604;51.204;22.552;2022-11-20T06:07:28;-3.00;89.60
42965;DHT22;28604;51.204;22.552;2022-11-20T06:09:53;-3.00;89.70
42965;DHT22;28604;51.204;22.552;2022-11-20T06:12:19;-3.00;89.90
42965;DHT22;28604;51.204;22.552;2022-11-20T06:14:45;-3.00;90.20
42965;DHT22;28604;51.204;22.552;2022-11-20T06:17:11;-3.10;90.00
42965;DHT22;28604;51.204;22.552;2022-11-20T06:19:37;-3.10;90.20
42965;DHT22;28604;51.204;22.552;2022-11-20T06:22:03;-3.20;90.20
42965;DHT22;28604;51.204;22.552;2022-11-20T06:24:29;-3.20;90.20
42965;DHT22;28604;51.204;22.552;2022-11-20T06:26:55;-3.20;90.30
42965;DHT22;28604;51.204;22.552;2022-11-20T06:29:21;-3.10;90.60
42965;DHT22;28604;51.204;22.552;2022-11-20T06:31:47;-3.10;90.20
42965;DHT22;28604;51.204;22.552;2022-11-20T06:34:13;-3.10;90.30
42965;DHT22;28604;51.204;22.552;2022-11-20T06:36:39;-3.10;90.40
42965;DHT22;28604;51.204;22.552;2022-11-20T06:39:05;-3.00;90.80
42965;DHT22;28604;51.204;22.552;2022-11-20T06:41:31;-2.90;90.50
42965;DHT22;28604;51.204;22.552;2022-11-20T06:43:57;-2.70;90.40
42965;DHT22;28604;51.204;22.552;2022-11-20T06:46:23;-2.50;90.30
42965;DHT22;28604;51.204;22.552;2022-11-20T06:48:49;-2.30;90.10
42965;DHT22;28604;51.204;22.552;2022-11-20T06:51:15;-2.30;89.50
42965;DHT22;28604;51.204;22.552;2022-11-20T06:53:41;-2.00;89.80
42965;DHT22;28604;51.204;22.552;2022-11-20T06:56:08;-1.90;88.60
42965;DHT22;28604;51.204;22.552;2022-11-20T06:58:35;-1.80;88.80
42965;DHT22;28604;51.204;22.552;2022-11-20T07:01:04;-1.80;88.50
42965;DHT22;28604;51.204;22.552;2022-11-20T07:03:30;-1.90;88.30
42965;DHT22;28604;51.204;22.552;2022-11-20T07:05:57;-1.90;88.20
42965;DHT22;28604;51.204;22.552;2022-11-20T07:08:25;-1.90;88.00
42965;DHT22;28604;51.204;22.552;2022-11-20T07:10:51;-2.00;88.20
42965;DHT22;28604;51.204;22.552;2022-11-20T07:13:17;-2.00;88.60
42965;DHT22;28604;51.204;22.552;2022-11-20T07:15:43;-1.90;88.90
42965;DHT22;28604;51.204;22.552;2022-11-20T07:18:09;-2.10;89.50
42965;DHT22;28604;51.204;22.552;2022-11-20T07:20:35;-2.10;89.60
42965;DHT22;28604;51.204;22.552;2022-11-20T07:23:01;-2.00;89.90
42965;DHT22;28604;51.204;22.552;2022-11-20T07:25:28;-1.90;90.00
42965;DHT22;28604;51.204;22.552;2022-11-20T07:28:00;-1.90;90.30
42965;DHT22;28604;51.204;22.552;2022-11-20T07:30:30;-1.90;90.40
42965;DHT22;28604;51.204;22.552;2022-11-20T07:32:56;-1.80;90.60
42965;DHT22;28604;51.204;22.552;2022-11-20T07:35:23;-1.80;90.50
42965;DHT22;28604;51.204;22.552;2022-11-20T07:37:49;-1.90;90.70
42965;DHT22;28604;51.204;22.552;2022-11-20T07:40:16;-1.90;90.70
42965;DHT22;28604;51.204;22.552;2022-11-20T07:42:53;-1.80;90.80
42965;DHT22;28604;51.204;22.552;2022-11-20T07:45:21;-1.80;90.80
42965;DHT22;28604;51.204;22.552;2022-11-20T07:47:47;-1.80;91.00
42965;DHT22;28604;51.204;22.552;2022-11-20T07:50:14;-1.80;91.00
42965;DHT22;28604;51.204;22.552;2022-11-20T07:52:40;-1.80;91.30
42965;DHT22;28604;51.204;22.552;2022-11-20T07:55:07;-1.70;91.20
42965;DHT22;28604;51.204;22.552;2022-11-20T07:57:33;-1.70;91.00
42965;DHT22;28604;51.204;22.552;2022-11-20T07:59:59;-1.60;91.10
42965;DHT22;28604;51.204;22.552;2022-11-20T08:02:25;-1.50;91.10
42965;DHT22;28604;51.204;22.552;2022-11-20T08:04:51;-1.60;91.20
42965;DHT22;28604;51.204;22.552;2022-11-20T08:07:17;-1.50;91.20
42965;DHT22;28604;51.204;22.552;2022-11-20T08:09:43;-1.40;91.00
42965;DHT22;28604;51.204;22.552;2022-11-20T08:12:17;-1.40;90.90
42965;DHT22;28604;51.204;22.552;2022-11-20T08:15:03;-1.60;91.20
42965;DHT22;28604;51.204;22.552;2022-11-20T08:17:29;-1.50;91.30
42965;DHT22;28604;51.204;22.552;2022-11-20T08:19:55;-1.50;91.30
42965;DHT22;28604;51.204;22.552;2022-11-20T08:22:21;-1.40;91.40
42965;DHT22;28604;51.204;22.552;2022-11-20T08:24:47;-1.40;91.20
42965;DHT22;28604;51.204;22.552;2022-11-20T08:27:13;-1.40;91.20
42965;DHT22;28604;51.204;22.552;2022-11-20T08:29:39;-1.40;91.30
42965;DHT22;28604;51.204;22.552;2022-11-20T08:32:05;-1.40;91.50
42965;DHT22;28604;51.204;22.552;2022-11-20T08:34:38;-1.30;91.20
42965;DHT22;28604;51.204;22.552;2022-11-20T08:37:04;-1.20;91.10
42965;DHT22;28604;51.204;22.552;2022-11-20T08:39:30;-1.20;91.00
42965;DHT22;28604;51.204;22.552;2022-11-20T08:41:56;-1.20;91.00
42965;DHT22;28604;51.204;22.552;2022-11-20T08:44:22;-1.40;90.90
42965;DHT22;28604;51.204;22.552;2022-11-20T08:46:47;-1.30;91.00
42965;DHT22;28604;51.204;22.552;2022-11-20T08:49:14;-1.50;91.20
42965;DHT22;28604;51.204;22.552;2022-11-20T08:51:41;-1.40;91.40
42965;DHT22;28604;51.204;22.552;2022-11-20T08:54:07;-1.50;91.40
42965;DHT22;28604;51.204;22.552;2022-11-20T08:56:34;-1.50;91.50
42965;DHT22;28604;51.204;22.552;2022-11-20T08:59:00;-1.50;91.50
42965;DHT22;28604;51.204;22.552;2022-11-20T09:01:27;-1.50;91.60
42965;DHT22;28604;51.204;22.552;2022-11-20T09:03:55;-1.50;91.60
42965;DHT22;28604;51.204;22.552;2022-11-20T09:06:22;-1.50;91.70
42965;DHT22;28604;51.204;22.552;2022-11-20T09:08:52;-1.60;91.80
42965;DHT22;28604;51.204;22.552;2022-11-20T09:11:18;-1.50;91.70
42965;DHT22;28604;51.204;22.552;2022-11-20T09:13:44;-1.60;91.70
42965;DHT22;28604;51.204;22.552;2022-11-20T09:16:10;-1.50;91.80
42965;DHT22;28604;51.204;22.552;2022-11-20T09:18:36;-1.50;91.80
42965;DHT22;28604;51.204;22.552;2022-11-20T09:21:11;-1.30;91.70
42965;DHT22;28604;51.204;22.552;2022-11-20T09:23:38;-1.20;91.50
42965;DHT22;28604;51.204;22.552;2022-11-20T09:26:14;-1.10;91.30
42965;DHT22;28604;51.204;22.552;2022-11-20T09:28:40;-1.00;91.20
42965;DHT22;28604;51.204;22.552;2022-11-20T09:31:07;-0.90;91.00
42965;DHT22;28604;51.204;22.552;2022-11-20T09:33:33;-0.90;91.00
42965;DHT22;28604;51.204;22.552;2022-11-20T09:36:00;-0.80;90.80
42965;DHT22;28604;51.204;22.552;2022-11-20T09:38:26;-0.90;90.90
42965;DHT22;28604;51.204;22.552;2022-11-20T09:41:03;-1.00;91.00
42965;DHT22;28604;51.204;22.552;2022-11-20T09:43:47;-0.80;90.90
42965;DHT22;28604;51.204;22.552;2022-11-20T09:46:25;-0.80;91.00
42965;DHT22;28604;51.204;22.552;2022-11-20T09:52:01;-0.80;90.70
42965;DHT22;28604;51.204;22.552;2022-11-20T09:54:34;-0.90;90.90
42965;DHT22;28604;51.204;22.552;2022-11-20T09:57:08;-0.90;90.90
42965;DHT22;28604;51.204;22.552;2022-11-20T09:59:39;-0.80;90.90
42965;DHT22;28604;51.204;22.552;2022-11-20T10:03:01;-0.80;90.90
42965;DHT22;28604;51.204;22.552;2022-11-20T10:10:31;-0.70;90.90
42965;DHT22;28604;51.204;22.552;2022-11-20T10:13:30;-0.90;91.00
42965;DHT22;28604;51.204;22.552;2022-11-20T10:16:16;-0.80;91.10
42965;DHT22;28604;51.204;22.552;2022-11-20T10:21:58;-0.80;91.00
42965;DHT22;28604;51.204;22.552;2022-11-20T10:25:05;-0.70;91.00
42965;DHT22;28604;51.204;22.552;2022-11-20T10:30:21;-0.90;91.20
42965;DHT22;28604;51.204;22.552;2022-11-20T10:33:01;-0.90;91.20
42965;DHT22;28604;51.204;22.552;2022-11-20T10:35:42;-0.90;91.20
42965;DHT22;28604;51.204;22.552;2022-11-20T10:38:19;-0.80;91.20
42965;DHT22;28604;51.204;22.552;2022-11-20T10:40:50;-0.70;91.00
42965;DHT22;28604;51.204;22.552;2022-11-20T10:43:23;-0.70;91.00
42965;DHT22;28604;51.204;22.552;2022-11-20T10:48:25;-0.50;91.00
42965;DHT22;28604;51.204;22.552;2022-11-20T10:53:41;-0.40;90.70
42965;DHT22;28604;51.204;22.552;2022-11-20T10:59:11;-0.40;90.70
42965;DHT22;28604;51.204;22.552;2022-11-20T11:01:42;-0.30;90.70
42965;DHT22;28604;51.204;22.552;2022-11-20T11:06:58;-0.20;90.50
42965;DHT22;28604;51.204;22.552;2022-11-20T11:09:34;-0.30;90.50
42965;DHT22;28604;51.204;22.552;2022-11-20T11:12:01;-0.40;90.70
42965;DHT22;28604;51.204;22.552;2022-11-20T11:14:27;-0.60;90.80
42965;DHT22;28604;51.204;22.552;2022-11-20T11:16:55;-0.60;91.00
42965;DHT22;28604;51.204;22.552;2022-11-20T11:19:22;-0.60;91.00
42965;DHT22;28604;51.204;22.552;2022-11-20T11:21:51;-0.50;91.00
42965;DHT22;28604;51.204;22.552;2022-11-20T11:24:26;-0.50;90.90
42965;DHT22;28604;51.204;22.552;2022-11-20T11:27:01;-0.50;90.90
42965;DHT22;28604;51.204;22.552;2022-11-20T11:29:33;-0.40;90.90
42965;DHT22;28604;51.204;22.552;2022-11-20T11:32:17;-0.40;90.80
42965;DHT22;28604;51.204;22.552;2022-11-20T11:34:44;-0.50;90.80
42965;DHT22;28604;51.204;22.552;2022-11-20T11:37:15;-0.30;90.90
42965;DHT22;28604;51.204;22.552;2022-11-20T11:39:43;-0.20;90.90
42965;DHT22;28604;51.204;22.552;2022-11-20T11:42:17;-0.30;90.80
42965;DHT22;28604;51.204;22.552;2022-11-20T11:44:46;-0.30;90.80
42965;DHT22;28604;51.204;22.552;2022-11-20T11:47:37;-0.30;90.70
42965;DHT22;28604;51.204;22.552;2022-11-20T11:53:01;-0.30;90.70
42965;DHT22;28604;51.204;22.552;2022-11-20T11:58:23;-0.30;90.80
42965;DHT22;28604;51.204;22.552;2022-11-20T12:00:55;-0.30;90.80
42965;DHT22;28604;51.204;22.552;2022-11-20T12:03:30;-0.20;90.60
42965;DHT22;28604;51.204;22.552;2022-11-20T12:06:08;-0.10;90.50
42965;DHT22;28604;51.204;22.552;2022-11-20T12:08:42;0.00;90.50
42965;DHT22;28604;51.204;22.552;2022-11-20T12:13:58;0.10;90.40
42965;DHT22;28604;51.204;22.552;2022-11-20T12:16:34;0.10;90.40
42965;DHT22;28604;51.204;22.552;2022-11-20T12:19:01;0.00;90.40
42965;DHT22;28604;51.204;22.552;2022-11-20T12:27:22;0.10;90.30
42965;DHT22;28604;51.204;22.552;2022-11-20T12:30:10;0.10;90.10
42965;DHT22;28604;51.204;22.552;2022-11-20T12:43:22;-0.10;90.00
42965;DHT22;28604;51.204;22.552;2022-11-20T12:46:18;0.00;90.00
42965;DHT22;28604;51.204;22.552;2022-11-20T12:48:52;0.10;90.00
42965;DHT22;28604;51.204;22.552;2022-11-20T13:01:58;0.00;90.10
42965;DHT22;28604;51.204;22.552;2022-11-20T13:07:22;-0.20;89.40
42965;DHT22;28604;51.204;22.552;2022-11-20T13:09:50;-0.30;89.50
42965;DHT22;28604;51.204;22.552;2022-11-20T13:19:53;0.00;90.00
42965;DHT22;28604;51.204;22.552;2022-11-20T13:22:27;-0.10;89.90
42965;DHT22;28604;51.204;22.552;2022-11-20T13:24:54;-0.10;90.00
42965;DHT22;28604;51.204;22.552;2022-11-20T13:27:22;-0.10;90.10
42965;DHT22;28604;51.204;22.552;2022-11-20T13:32:36;-0.20;90.10
42965;DHT22;28604;51.204;22.552;2022-11-20T13:35:04;-0.20;90.00
42965;DHT22;28604;51.204;22.552;2022-11-20T13:37:37;-0.40;89.90
42965;DHT22;28604;51.204;22.552;2022-11-20T13:42:54;-0.30;90.20
42965;DHT22;28604;51.204;22.552;2022-11-20T13:45:31;-0.30;90.20
42965;DHT22;28604;51.204;22.552;2022-11-20T13:48:19;-0.30;90.10
42965;DHT22;28604;51.204;22.552;2022-11-20T13:50:55;-0.40;90.10
42965;DHT22;28604;51.204;22.552;2022-11-20T13:53:35;-0.40;90.00
42965;DHT22;28604;51.204;22.552;2022-11-20T13:56:16;-0.40;90.10
42965;DHT22;28604;51.204;22.552;2022-11-20T14:01:24;-0.30;89.80
42965;DHT22;28604;51.204;22.552;2022-11-20T14:03:52;-0.40;89.40
42965;DHT22;28604;51.204;22.552;2022-11-20T14:06:27;-0.30;89.80
42965;DHT22;28604;51.204;22.552;2022-11-20T14:08:54;-0.30;89.50
42965;DHT22;28604;51.204;22.552;2022-11-20T14:11:23;-0.40;89.50
42965;DHT22;28604;51.204;22.552;2022-11-20T14:16:34;-0.20;89.30
42965;DHT22;28604;51.204;22.552;2022-11-20T14:19:29;-0.20;89.50
42965;DHT22;28604;51.204;22.552;2022-11-20T14:22:17;-0.20;89.50
42965;DHT22;28604;51.204;22.552;2022-11-20T14:24:44;-0.20;89.70
42965;DHT22;28604;51.204;22.552;2022-11-20T14:27:20;-0.20;89.40
42965;DHT22;28604;51.204;22.552;2022-11-20T14:29:49;-0.20;89.00
42965;DHT22;28604;51.204;22.552;2022-11-20T14:32:20;-0.20;89.10
42965;DHT22;28604;51.204;22.552;2022-11-20T14:34:49;-0.20;88.90
42965;DHT22;28604;51.204;22.552;2022-11-20T14:37:24;-0.30;88.90
42965;DHT22;28604;51.204;22.552;2022-11-20T14:39:53;-0.40;89.40
42965;DHT22;28604;51.204;22.552;2022-11-20T14:42:25;-0.50;89.40
42965;DHT22;28604;51.204;22.552;2022-11-20T14:44:54;-0.40;89.40
42965;DHT22;28604;51.204;22.552;2022-11-20T14:47:29;-0.50;89.20
42965;DHT22;28604;51.204;22.552;2022-11-20T14:49:57;-0.40;89.30
42965;DHT22;28604;51.204;22.552;2022-11-20T14:52:25;-0.40;89.10
42965;DHT22;28604;51.204;22.552;2022-11-20T14:54:53;-0.50;89.30
42965;DHT22;28604;51.204;22.552;2022-11-20T14:59:50;-0.40;89.30
42965;DHT22;28604;51.204;22.552;2022-11-20T15:02:16;-0.40;89.00
42965;DHT22;28604;51.204;22.552;2022-11-20T15:04:50;-0.50;89.00
42965;DHT22;28604;51.204;22.552;2022-11-20T15:07:33;-0.60;89.50
42965;DHT22;28604;51.204;22.552;2022-11-20T15:10:06;-0.70;89.90
42965;DHT22;28604;51.204;22.552;2022-11-20T15:12:39;-0.70;90.00
42965;DHT22;28604;51.204;22.552;2022-11-20T15:15:08;-0.70;90.10
42965;DHT22;28604;51.204;22.552;2022-11-20T15:17:37;-0.80;90.10
42965;DHT22;28604;51.204;22.552;2022-11-20T15:20:09;-0.80;90.20
42965;DHT22;28604;51.204;22.552;2022-11-20T15:22:37;-0.70;90.20
42965;DHT22;28604;51.204;22.552;2022-11-20T15:25:14;-0.70;90.10
42965;DHT22;28604;51.204;22.552;2022-11-20T15:27:42;-0.80;90.00
42965;DHT22;28604;51.204;22.552;2022-11-20T15:30:19;-0.80;90.10
42965;DHT22;28604;51.204;22.552;2022-11-20T15:32:46;-0.90;90.10
42965;DHT22;28604;51.204;22.552;2022-11-20T15:35:13;-0.90;90.10
42965;DHT22;28604;51.204;22.552;2022-11-20T15:37:40;-0.90;90.00
42965;DHT22;28604;51.204;22.552;2022-11-20T15:40:07;-1.00;90.10
42965;DHT22;28604;51.204;22.552;2022-11-20T15:42:34;-1.00;90.10
42965;DHT22;28604;51.204;22.552;2022-11-20T15:45:00;-1.10;90.30
42965;DHT22;28604;51.204;22.552;2022-11-20T15:47:32;-1.00;90.30
42965;DHT22;28604;51.204;22.552;2022-11-20T15:49:58;-0.90;90.20
42965;DHT22;28604;51.204;22.552;2022-11-20T15:52:25;-1.00;90.30
42965;DHT22;28604;51.204;22.552;2022-11-20T15:54:51;-1.00;90.40
42965;DHT22;28604;51.204;22.552;2022-11-20T15:57:17;-1.00;90.30
42965;DHT22;28604;51.204;22.552;2022-11-20T15:59:43;-1.00;90.50
42965;DHT22;28604;51.204;22.552;2022-11-20T16:02:11;-1.00;90.30
42965;DHT22;28604;51.204;22.552;2022-11-20T16:04:37;-1.00;90.50
42965;DHT22;28604;51.204;22.552;2022-11-20T16:07:03;-1.00;90.20
42965;DHT22;28604;51.204;22.552;2022-11-20T16:09:29;-1.10;90.40
42965;DHT22;28604;51.204;22.552;2022-11-20T16:11:55;-1.10;90.40
42965;DHT22;28604;51.204;22.552;2022-11-20T16:14:23;-1.20;90.50
42965;DHT22;28604;51.204;22.552;2022-11-20T16:17:08;-1.10;90.30
42965;DHT22;28604;51.204;22.552;2022-11-20T16:19:33;-1.10;90.30
42965;DHT22;28604;51.204;22.552;2022-11-20T16:22:00;-1.10;90.20
42965;DHT22;28604;51.204;22.552;2022-11-20T16:24:26;-1.20;90.20
42965;DHT22;28604;51.204;22.552;2022-11-20T16:26:53;-1.30;90.50
42965;DHT22;28604;51.204;22.552;2022-11-20T16:29:19;-1.30;90.40
42965;DHT22;28604;51.204;22.552;2022-11-20T16:31:45;-1.20;90.20
42965;DHT22;28604;51.204;22.552;2022-11-20T16:34:11;-1.30;90.30
42965;DHT22;28604;51.204;22.552;2022-11-20T16:36:40;-1.30;90.10
42965;DHT22;28604;51.204;22.552;2022-11-20T16:39:07;-1.30;90.00
42965;DHT22;28604;51.204;22.552;2022-11-20T16:41:34;-1.30;89.30
42965;DHT22;28604;51.204;22.552;2022-11-20T16:44:01;-1.30;89.60
42965;DHT22;28604;51.204;22.552;2022-11-20T16:46:30;-1.30;89.00
42965;DHT22;28604;51.204;22.552;2022-11-20T16:49:02;-1.40;88.70
42965;DHT22;28604;51.204;22.552;2022-11-20T16:51:30;-1.40;88.50
42965;DHT22;28604;51.204;22.552;2022-11-20T16:53:56;-1.50;88.70
42965;DHT22;28604;51.204;22.552;2022-11-20T16:56:26;-1.50;89.00
42965;DHT22;28604;51.204;22.552;2022-11-20T16:58:54;-1.60;88.70
42965;DHT22;28604;51.204;22.552;2022-11-20T17:01:22;-1.60;89.00
42965;DHT22;28604;51.204;22.552;2022-11-20T17:03:57;-1.60;88.70